createdAt,value
2017-09-09T00:03:20.209Z,0
2017-09-09T00:08:25.608Z,0
2017-09-09T00:13:30.672Z,0
2017-09-09T00:18:35.065Z,0
2017-09-09T00:23:40.797Z,0
2017-09-09T00:28:45.864Z,0
2017-09-09T00:33:51.934Z,0
2017-09-09T00:38:57.667Z,0
2017-09-09T00:44:02.727Z,0
2017-09-09T00:49:07.455Z,0
2017-09-09T00:54:12.520Z,0
2017-09-09T00:59:18.252Z,0
2017-09-09T01:04:22.988Z,0
2017-09-09T01:09:28.722Z,0
2017-09-09T01:14:34.117Z,0
2017-09-09T01:19:38.850Z,0
2017-09-09T01:24:43.582Z,0
2017-09-09T01:29:48.646Z,0
2017-09-09T01:34:54.046Z,0
2017-09-09T01:39:59.112Z,0
2017-09-09T01:45:04.508Z,0
2017-09-09T01:50:09.910Z,0
2017-09-09T01:55:14.979Z,0
2017-09-09T02:00:20.375Z,0
2017-09-09T02:05:25.440Z,0
2017-09-09T02:10:30.507Z,0
2017-09-09T02:15:36.577Z,0
2017-09-09T02:20:42.309Z,0
2017-09-09T02:25:48.041Z,0
2017-09-09T02:30:53.442Z,0
2017-09-09T02:35:59.174Z,0
2017-09-09T02:41:04.911Z,0
2017-09-09T02:46:10.308Z,0
2017-09-09T02:51:15.045Z,0
2017-09-09T02:56:20.101Z,0
2017-09-09T03:01:25.163Z,0
2017-09-09T03:06:30.560Z,0
2017-09-09T03:11:35.961Z,0
2017-09-09T03:16:42.028Z,0
2017-09-09T03:21:47.427Z,0
2017-09-09T03:26:52.159Z,0
2017-09-09T03:31:57.558Z,0
2017-09-09T03:37:03.293Z,0
2017-09-09T03:42:08.358Z,0
2017-09-09T03:47:14.088Z,0
2017-09-09T03:52:19.495Z,0
2017-09-09T03:57:24.888Z,0
2017-09-09T04:02:30.284Z,0
2017-09-09T04:07:35.685Z,0
2017-09-09T04:12:40.749Z,0
2017-09-09T04:17:45.141Z,0
2017-09-09T04:22:51.207Z,1
2017-09-09T04:27:55.936Z,1
2017-09-09T04:33:02.001Z,2
2017-09-09T04:38:07.400Z,3
2017-09-09T04:43:11.793Z,5
2017-09-09T04:48:16.859Z,4
2017-09-09T04:53:22.268Z,13
2017-09-09T04:58:28.327Z,17
2017-09-09T05:03:33.056Z,24
2017-09-09T05:08:38.462Z,24
2017-09-09T05:13:43.854Z,33
2017-09-09T05:18:48.583Z,48
2017-09-09T05:23:54.653Z,46
2017-09-09T05:28:58.711Z,50
2017-09-09T05:34:04.165Z,53
2017-09-09T05:39:09.890Z,69
2017-09-09T05:44:14.619Z,87
2017-09-09T05:49:20.349Z,106
2017-09-09T05:54:25.078Z,124
2017-09-09T05:59:30.477Z,120
2017-09-09T06:04:34.869Z,122
2017-09-09T06:09:39.932Z,131
2017-09-09T06:14:45.333Z,151
2017-09-09T06:19:50.064Z,183
2017-09-09T06:24:54.463Z,184
2017-09-09T06:29:59.858Z,193
2017-09-09T06:35:05.260Z,218
2017-09-09T06:40:10.323Z,180
2017-09-09T06:45:16.055Z,207
2017-09-09T06:50:21.120Z,170
2017-09-09T06:55:25.515Z,189
2017-09-09T07:00:30.244Z,275
2017-09-09T07:05:36.315Z,417
2017-09-09T07:10:42.381Z,472
2017-09-09T07:15:47.779Z,451
2017-09-09T07:20:52.180Z,383
2017-09-09T07:25:57.244Z,369
2017-09-09T07:31:02.313Z,239
2017-09-09T07:36:07.716Z,160
2017-09-09T07:41:12.792Z,245
2017-09-09T07:46:16.849Z,238
2017-09-09T07:51:21.913Z,206
2017-09-09T07:56:27.645Z,255
2017-09-09T08:01:33.379Z,218
2017-09-09T08:06:38.104Z,362
2017-09-09T08:11:43.503Z,376
2017-09-09T08:16:48.907Z,340
2017-09-09T08:21:53.972Z,322
2017-09-09T08:26:59.370Z,340
2017-09-09T08:32:04.774Z,313
2017-09-09T08:37:10.509Z,307
2017-09-09T08:42:15.237Z,272
2017-09-09T08:47:20.972Z,365
2017-09-09T08:52:26.703Z,603
2017-09-09T08:57:31.098Z,729
2017-09-09T09:02:36.497Z,784
2017-09-09T09:07:41.232Z,451
2017-09-09T09:12:46.631Z,407
2017-09-09T09:17:52.033Z,676
2017-09-09T09:22:56.434Z,605
2017-09-09T09:28:01.835Z,432
2017-09-09T09:33:07.571Z,398
2017-09-09T09:38:11.967Z,679
2017-09-09T09:43:16.359Z,885
2017-09-09T09:48:21.645Z,2061
2017-09-09T09:53:26.713Z,1353
2017-09-09T09:58:30.779Z,1644
2017-09-09T10:03:35.510Z,795
2017-09-09T10:08:41.578Z,506
2017-09-09T10:13:47.739Z,548
2017-09-09T10:18:53.850Z,456
2017-09-09T10:23:59.635Z,390
2017-09-09T10:29:05.612Z,372
2017-09-09T10:34:11.599Z,333
2017-09-09T10:39:17.047Z,286
2017-09-09T10:44:23.178Z,261
2017-09-09T10:49:28.630Z,333
2017-09-09T10:54:34.491Z,428
2017-09-09T10:59:40.000Z,428
2017-09-09T11:04:45.750Z,447
2017-09-09T11:09:50.842Z,457
2017-09-09T11:14:55.964Z,487
2017-09-09T11:20:01.072Z,910
2017-09-09T11:25:06.188Z,770
2017-09-09T11:30:11.282Z,511
2017-09-09T11:35:16.738Z,954
2017-09-09T11:40:22.192Z,2659
2017-09-09T11:45:27.980Z,2003
2017-09-09T11:50:33.652Z,2870
2017-09-09T11:55:38.972Z,3139
2017-09-09T12:00:44.596Z,1058
2017-09-09T12:05:49.016Z,593
2017-09-09T12:10:54.165Z,2592
2017-09-09T12:15:59.925Z,1612
2017-09-09T12:21:05.009Z,1336
2017-09-09T12:26:10.094Z,680
2017-09-09T12:31:15.875Z,1250
2017-09-09T12:36:20.960Z,840
2017-09-09T12:41:25.712Z,736
2017-09-09T12:46:30.335Z,449
2017-09-09T12:51:35.676Z,585
2017-09-09T12:56:41.102Z,1113
2017-09-09T13:01:46.578Z,1046
2017-09-09T13:06:51.698Z,948
2017-09-09T13:11:57.115Z,575
2017-09-09T13:17:01.869Z,476
2017-09-09T13:22:06.951Z,862
2017-09-09T13:27:12.043Z,915
2017-09-09T13:32:17.494Z,673
2017-09-09T13:37:22.603Z,720
2017-09-09T13:42:27.385Z,863
2017-09-09T13:47:32.524Z,1044
2017-09-09T13:52:37.663Z,1118
2017-09-09T13:57:43.776Z,1037
2017-09-09T14:02:49.233Z,950
2017-09-09T14:07:54.342Z,1019
2017-09-09T14:12:58.781Z,844
2017-09-09T14:18:04.099Z,606
2017-09-09T14:23:09.204Z,552
2017-09-09T14:28:15.094Z,1104
2017-09-09T14:33:20.635Z,989
2017-09-09T14:38:25.931Z,587
2017-09-09T14:43:30.352Z,252
2017-09-09T14:48:35.766Z,176
2017-09-09T14:53:40.548Z,513
2017-09-09T14:58:45.986Z,831
2017-09-09T15:03:51.492Z,771
2017-09-09T15:08:56.276Z,474
2017-09-09T15:14:01.034Z,392
2017-09-09T15:19:06.497Z,352
2017-09-09T15:24:11.599Z,351
2017-09-09T15:29:16.700Z,272
2017-09-09T15:34:21.791Z,366
2017-09-09T15:39:27.221Z,288
2017-09-09T15:44:31.973Z,324
2017-09-09T15:49:37.060Z,445
2017-09-09T15:54:42.479Z,367
2017-09-09T15:59:48.220Z,204
2017-09-09T16:04:53.325Z,301
2017-09-09T16:09:58.408Z,328
2017-09-09T16:15:03.483Z,363
2017-09-09T16:20:08.918Z,320
2017-09-09T16:25:14.673Z,255
2017-09-09T16:30:19.782Z,324
2017-09-09T16:35:25.198Z,259
2017-09-09T16:40:29.957Z,200
2017-09-09T16:45:35.048Z,168
2017-09-09T16:50:40.484Z,156
2017-09-09T16:55:45.935Z,143
2017-09-09T17:00:51.389Z,134
2017-09-09T17:05:56.841Z,76
2017-09-09T17:11:01.598Z,115
2017-09-09T17:16:07.037Z,133
2017-09-09T17:21:12.212Z,114
2017-09-09T17:26:17.646Z,83
2017-09-09T17:31:22.093Z,68
2017-09-09T17:36:26.506Z,53
2017-09-09T17:41:31.638Z,38
2017-09-09T17:46:37.077Z,25
2017-09-09T17:51:42.532Z,16
2017-09-09T17:56:47.964Z,9
2017-09-09T18:01:52.384Z,5
2017-09-09T18:06:57.466Z,3
2017-09-09T18:12:02.909Z,2
2017-09-09T18:17:08.005Z,1
2017-09-09T18:22:12.457Z,1
2017-09-09T18:27:18.224Z,0
2017-09-09T18:32:22.638Z,0
2017-09-09T18:37:28.046Z,0
2017-09-09T18:42:33.445Z,0
2017-09-09T18:47:38.513Z,0
2017-09-09T18:52:43.927Z,0
2017-09-09T18:57:49.672Z,0
2017-09-09T19:02:55.416Z,0
2017-09-09T19:08:00.147Z,0
2017-09-09T19:13:05.219Z,0
2017-09-09T19:18:10.641Z,0
2017-09-09T19:23:16.044Z,0
2017-09-09T19:28:21.117Z,0
2017-09-09T19:33:26.596Z,0
2017-09-09T19:38:31.338Z,0
2017-09-09T19:43:35.736Z,0
2017-09-09T19:48:40.803Z,0
2017-09-09T19:53:46.209Z,0
2017-09-09T19:58:51.280Z,0
2017-09-09T20:03:56.017Z,0
2017-09-09T20:09:01.087Z,0
2017-09-09T20:14:06.153Z,0
2017-09-09T20:19:11.551Z,0
2017-09-09T20:24:17.625Z,0
2017-09-09T20:29:23.028Z,0
2017-09-09T20:34:28.428Z,0
2017-09-09T20:39:33.498Z,0
2017-09-09T20:44:38.233Z,0
2017-09-09T20:49:43.301Z,0
2017-09-09T20:54:48.702Z,0
2017-09-09T20:59:53.113Z,0
2017-09-09T21:04:58.853Z,0
2017-09-09T21:10:04.599Z,0
2017-09-09T21:15:10.334Z,0
2017-09-09T21:20:15.409Z,0
2017-09-09T21:25:20.811Z,0
2017-09-09T21:30:25.897Z,0
2017-09-09T21:35:30.967Z,0
2017-09-09T21:40:36.403Z,0
2017-09-09T21:45:42.520Z,0
2017-09-09T21:50:47.267Z,0
2017-09-09T21:55:52.386Z,0
2017-09-09T22:00:58.357Z,0
2017-09-09T22:06:03.802Z,0
2017-09-09T22:11:09.567Z,0
2017-09-09T22:16:15.520Z,0
2017-09-09T22:21:19.924Z,0
2017-09-09T22:26:26.211Z,0
2017-09-09T22:31:31.967Z,0
2017-09-09T22:36:36.782Z,0
2017-09-09T22:41:41.852Z,0
2017-09-09T22:46:46.948Z,0
2017-09-09T22:51:53.021Z,0
2017-09-09T22:56:57.748Z,0
2017-09-09T23:02:02.476Z,0
2017-09-09T23:07:08.212Z,0
2017-09-09T23:12:13.948Z,0
2017-09-09T23:17:18.678Z,0
2017-09-09T23:22:24.745Z,0
2017-09-09T23:27:30.141Z,0
2017-09-09T23:32:35.230Z,0
2017-09-09T23:37:39.980Z,0
2017-09-09T23:42:45.590Z,0
2017-09-09T23:47:51.048Z,0
2017-09-09T23:52:56.107Z,0
2017-09-09T23:58:00.845Z,0
